KFFC

Atlanta Regional Falcon Field Airport

Atlanta, Georgia, USA
METAR KFFC 180153Z AUTO VRB03KT 10SM FEW036 BKN085 25/22 A3015 RMK AO2 SLP201 T02500222
Observed Flight Rules
Aug-18 @ 01:53 UTC (35 minutes ago) Visual Flight Rules
Wind Visibility Clouds
Variable at 3 knots 10 miles
  • Few at 3,600' AGL
  • Broken at 8,500' AGL
Temperatures Readings
Current 25°C / 77°F
Dewpoint 22°C / 72°F
Humidity 83%
Altimeter 30.15" Hg
Pressure 1020.1 hPa
Elevation 262
METAR KFFC 180153Z AUTO VRB03KT 10SM FEW036 BKN085 25/22 A3015 RMK AO2 SLP201 T02500222
Observed Flight Rules
Aug-18 @ 01:53 UTC
(35 minutes ago)
VFR
Wind Visibility
Variable at 3 knots 10 miles
Clouds
  • Few at 3,600' AGL
  • Broken at 8,500' AGL
Temperature Dewpoint
25°C / 77°F 22°C / 72°F
Humidity Altimeter Pressure
83% 30.15" Hg 1020.1 hPa